Terminal Aerodrome Forecast
Issued by NWS

Home | Current Version | Previous Version | Text Only | Print | Product List | Glossary On
Versions: 1 2 3 4 5 6 7 8 9 10 11 12 13
000
FTUS41 KRNK 231140
TAFLWB
TAF
KLWB 231140Z 2312/2412 09005KT P6SM -RA OVC022
     FM231500 10007KT 5SM -SHRA OVC025
     FM240000 14011KT 1SM +SHRA OVC030
     FM240300 19008KT 3SM SHRA OVC050
     FM240600 24004KT P6SM SCT015 BKN040
     FM240900 24004KT P6SM BKN015=

USA.gov is the U.S. government's official web portal to all federal, state and local government web resources and services.